sensor_id;sensor_type;location;lat;lon;timestamp;temperature;humidity
18321;DHT22;54904;54.350;18.664;2023-04-03T00:01:53;6.40;85.40
18321;DHT22;54904;54.350;18.664;2023-04-03T00:04:20;6.50;85.60
18321;DHT22;54904;54.350;18.664;2023-04-03T00:06:47;6.40;84.90
18321;DHT22;54904;54.350;18.664;2023-04-03T00:09:14;6.50;84.40
18321;DHT22;54904;54.350;18.664;2023-04-03T00:11:41;6.50;83.60
18321;DHT22;54904;54.350;18.664;2023-04-03T00:14:09;6.40;83.10
18321;DHT22;54904;54.350;18.664;2023-04-03T00:16:37;6.50;83.50
18321;DHT22;54904;54.350;18.664;2023-04-03T00:19:04;6.50;83.40
18321;DHT22;54904;54.350;18.664;2023-04-03T00:21:31;6.50;82.90
18321;DHT22;54904;54.350;18.664;2023-04-03T00:23:58;6.50;82.60
18321;DHT22;54904;54.350;18.664;2023-04-03T00:26:25;6.50;81.90
18321;DHT22;54904;54.350;18.664;2023-04-03T00:28:52;6.50;81.80
18321;DHT22;54904;54.350;18.664;2023-04-03T00:31:21;6.50;81.90
18321;DHT22;54904;54.350;18.664;2023-04-03T00:33:48;6.60;81.60
18321;DHT22;54904;54.350;18.664;2023-04-03T00:36:15;6.60;81.40
18321;DHT22;54904;54.350;18.664;2023-04-03T00:38:42;6.60;81.40
18321;DHT22;54904;54.350;18.664;2023-04-03T00:41:09;6.60;81.30
18321;DHT22;54904;54.350;18.664;2023-04-03T00:43:37;6.60;80.80
18321;DHT22;54904;54.350;18.664;2023-04-03T00:46:04;6.60;80.30
18321;DHT22;54904;54.350;18.664;2023-04-03T00:48:36;6.50;78.90
18321;DHT22;54904;54.350;18.664;2023-04-03T00:51:06;6.50;78.50
18321;DHT22;54904;54.350;18.664;2023-04-03T00:53:37;6.50;78.70
18321;DHT22;54904;54.350;18.664;2023-04-03T00:56:08;6.50;79.00
18321;DHT22;54904;54.350;18.664;2023-04-03T00:58:40;6.50;78.10
18321;DHT22;54904;54.350;18.664;2023-04-03T01:03:45;6.50;78.30
18321;DHT22;54904;54.350;18.664;2023-04-03T01:06:14;6.50;78.30
18321;DHT22;54904;54.350;18.664;2023-04-03T01:08:44;6.50;77.50
18321;DHT22;54904;54.350;18.664;2023-04-03T01:11:12;6.50;77.20
18321;DHT22;54904;54.350;18.664;2023-04-03T01:13:39;6.50;76.80
18321;DHT22;54904;54.350;18.664;2023-04-03T01:16:07;6.50;76.60
18321;DHT22;54904;54.350;18.664;2023-04-03T01:18:37;6.50;76.00
18321;DHT22;54904;54.350;18.664;2023-04-03T01:21:28;6.50;76.20
18321;DHT22;54904;54.350;18.664;2023-04-03T01:24:25;6.50;75.50
18321;DHT22;54904;54.350;18.664;2023-04-03T01:26:54;6.50;75.20
18321;DHT22;54904;54.350;18.664;2023-04-03T01:29:22;6.50;74.90
18321;DHT22;54904;54.350;18.664;2023-04-03T01:31:53;6.40;74.40
18321;DHT22;54904;54.350;18.664;2023-04-03T01:34:21;6.40;74.40
18321;DHT22;54904;54.350;18.664;2023-04-03T01:36:49;6.40;73.70
18321;DHT22;54904;54.350;18.664;2023-04-03T01:39:18;6.40;73.10
18321;DHT22;54904;54.350;18.664;2023-04-03T01:41:45;6.30;73.00
18321;DHT22;54904;54.350;18.664;2023-04-03T01:44:20;6.30;72.80
18321;DHT22;54904;54.350;18.664;2023-04-03T01:46:47;6.30;72.90
18321;DHT22;54904;54.350;18.664;2023-04-03T01:49:16;6.30;73.00
18321;DHT22;54904;54.350;18.664;2023-04-03T01:51:43;6.30;73.00
18321;DHT22;54904;54.350;18.664;2023-04-03T01:54:11;6.30;73.40
18321;DHT22;54904;54.350;18.664;2023-04-03T01:56:38;6.30;74.00
18321;DHT22;54904;54.350;18.664;2023-04-03T01:59:05;6.30;74.30
18321;DHT22;54904;54.350;18.664;2023-04-03T02:01:32;6.30;74.00
18321;DHT22;54904;54.350;18.664;2023-04-03T02:04:00;6.30;73.30
18321;DHT22;54904;54.350;18.664;2023-04-03T02:06:28;6.30;73.10
18321;DHT22;54904;54.350;18.664;2023-04-03T02:08:55;6.20;72.60
18321;DHT22;54904;54.350;18.664;2023-04-03T02:11:22;6.20;72.60
18321;DHT22;54904;54.350;18.664;2023-04-03T02:13:49;6.20;72.90
18321;DHT22;54904;54.350;18.664;2023-04-03T02:16:17;6.20;72.80
18321;DHT22;54904;54.350;18.664;2023-04-03T02:18:44;6.20;72.90
18321;DHT22;54904;54.350;18.664;2023-04-03T02:21:11;6.30;72.60
18321;DHT22;54904;54.350;18.664;2023-04-03T02:23:39;6.20;72.40
18321;DHT22;54904;54.350;18.664;2023-04-03T02:26:08;6.20;71.80
18321;DHT22;54904;54.350;18.664;2023-04-03T02:28:36;6.20;71.40
18321;DHT22;54904;54.350;18.664;2023-04-03T02:31:04;6.20;71.20
18321;DHT22;54904;54.350;18.664;2023-04-03T02:33:32;6.30;70.90
18321;DHT22;54904;54.350;18.664;2023-04-03T02:35:59;6.30;70.90
18321;DHT22;54904;54.350;18.664;2023-04-03T02:38:27;6.30;70.50
18321;DHT22;54904;54.350;18.664;2023-04-03T02:40:59;6.30;69.50
18321;DHT22;54904;54.350;18.664;2023-04-03T02:43:27;6.20;69.10
18321;DHT22;54904;54.350;18.664;2023-04-03T02:45:54;6.20;68.60
18321;DHT22;54904;54.350;18.664;2023-04-03T02:48:21;6.20;68.70
18321;DHT22;54904;54.350;18.664;2023-04-03T02:50:48;6.20;68.10
18321;DHT22;54904;54.350;18.664;2023-04-03T02:53:15;6.10;67.80
18321;DHT22;54904;54.350;18.664;2023-04-03T02:55:43;6.10;67.80
18321;DHT22;54904;54.350;18.664;2023-04-03T02:58:12;6.10;67.70
18321;DHT22;54904;54.350;18.664;2023-04-03T03:00:39;6.10;67.70
18321;DHT22;54904;54.350;18.664;2023-04-03T03:03:07;6.10;67.40
18321;DHT22;54904;54.350;18.664;2023-04-03T03:05:34;6.10;67.30
18321;DHT22;54904;54.350;18.664;2023-04-03T03:08:01;6.10;67.60
18321;DHT22;54904;54.350;18.664;2023-04-03T03:10:28;6.10;66.20
18321;DHT22;54904;54.350;18.664;2023-04-03T03:12:56;6.10;65.80
18321;DHT22;54904;54.350;18.664;2023-04-03T03:15:24;6.10;65.20
18321;DHT22;54904;54.350;18.664;2023-04-03T03:17:51;6.10;64.70
18321;DHT22;54904;54.350;18.664;2023-04-03T03:20:19;6.10;65.20
18321;DHT22;54904;54.350;18.664;2023-04-03T03:22:47;6.10;65.80
18321;DHT22;54904;54.350;18.664;2023-04-03T03:25:14;6.10;65.80
18321;DHT22;54904;54.350;18.664;2023-04-03T03:27:41;6.10;65.60
18321;DHT22;54904;54.350;18.664;2023-04-03T03:30:09;6.10;64.90
18321;DHT22;54904;54.350;18.664;2023-04-03T03:32:37;6.10;65.30
18321;DHT22;54904;54.350;18.664;2023-04-03T03:35:05;6.20;65.50
18321;DHT22;54904;54.350;18.664;2023-04-03T03:37:32;6.10;65.20
18321;DHT22;54904;54.350;18.664;2023-04-03T03:39:59;6.10;65.60
18321;DHT22;54904;54.350;18.664;2023-04-03T03:42:26;6.10;65.70
18321;DHT22;54904;54.350;18.664;2023-04-03T03:44:53;6.10;65.80
18321;DHT22;54904;54.350;18.664;2023-04-03T03:47:20;6.10;65.80
18321;DHT22;54904;54.350;18.664;2023-04-03T03:49:49;6.10;65.50
18321;DHT22;54904;54.350;18.664;2023-04-03T03:52:17;6.10;64.90
18321;DHT22;54904;54.350;18.664;2023-04-03T03:54:44;6.10;64.80
18321;DHT22;54904;54.350;18.664;2023-04-03T03:57:11;6.10;65.40
18321;DHT22;54904;54.350;18.664;2023-04-03T03:59:38;6.10;64.40
18321;DHT22;54904;54.350;18.664;2023-04-03T04:02:07;6.10;63.70
18321;DHT22;54904;54.350;18.664;2023-04-03T04:04:34;6.10;64.00
18321;DHT22;54904;54.350;18.664;2023-04-03T04:07:03;6.10;64.20
18321;DHT22;54904;54.350;18.664;2023-04-03T04:09:32;6.10;63.80
18321;DHT22;54904;54.350;18.664;2023-04-03T04:12:00;6.20;64.10
18321;DHT22;54904;54.350;18.664;2023-04-03T04:14:28;6.10;63.60
18321;DHT22;54904;54.350;18.664;2023-04-03T04:16:56;6.10;63.80
18321;DHT22;54904;54.350;18.664;2023-04-03T04:19:26;6.10;64.10
18321;DHT22;54904;54.350;18.664;2023-04-03T04:21:53;6.10;63.60
18321;DHT22;54904;54.350;18.664;2023-04-03T04:24:22;6.00;63.80
18321;DHT22;54904;54.350;18.664;2023-04-03T04:26:53;6.00;64.50
18321;DHT22;54904;54.350;18.664;2023-04-03T04:29:21;6.00;64.50
18321;DHT22;54904;54.350;18.664;2023-04-03T04:31:50;5.90;64.20
18321;DHT22;54904;54.350;18.664;2023-04-03T04:34:18;5.90;64.20
18321;DHT22;54904;54.350;18.664;2023-04-03T04:36:46;5.90;63.30
18321;DHT22;54904;54.350;18.664;2023-04-03T04:39:13;5.90;63.40
18321;DHT22;54904;54.350;18.664;2023-04-03T04:41:42;5.80;63.60
18321;DHT22;54904;54.350;18.664;2023-04-03T04:44:09;5.90;64.30
18321;DHT22;54904;54.350;18.664;2023-04-03T04:46:37;5.90;64.90
18321;DHT22;54904;54.350;18.664;2023-04-03T04:49:06;6.00;65.10
18321;DHT22;54904;54.350;18.664;2023-04-03T04:51:33;6.00;64.80
18321;DHT22;54904;54.350;18.664;2023-04-03T04:54:01;6.00;64.20
18321;DHT22;54904;54.350;18.664;2023-04-03T04:56:28;5.90;63.70
18321;DHT22;54904;54.350;18.664;2023-04-03T04:58:58;5.90;64.10
18321;DHT22;54904;54.350;18.664;2023-04-03T05:01:26;5.90;64.70
18321;DHT22;54904;54.350;18.664;2023-04-03T05:04:03;6.00;65.00
18321;DHT22;54904;54.350;18.664;2023-04-03T05:06:31;6.00;65.20
18321;DHT22;54904;54.350;18.664;2023-04-03T05:09:00;6.00;65.20
18321;DHT22;54904;54.350;18.664;2023-04-03T05:11:28;6.10;65.50
18321;DHT22;54904;54.350;18.664;2023-04-03T05:13:55;6.10;65.40
18321;DHT22;54904;54.350;18.664;2023-04-03T05:16:25;6.10;65.00
18321;DHT22;54904;54.350;18.664;2023-04-03T05:18:53;6.10;64.80
18321;DHT22;54904;54.350;18.664;2023-04-03T05:21:22;6.10;64.50
18321;DHT22;54904;54.350;18.664;2023-04-03T05:23:52;6.10;64.80
18321;DHT22;54904;54.350;18.664;2023-04-03T05:26:20;6.10;64.80
18321;DHT22;54904;54.350;18.664;2023-04-03T05:28:49;6.10;65.00
18321;DHT22;54904;54.350;18.664;2023-04-03T05:31:16;6.10;64.50
18321;DHT22;54904;54.350;18.664;2023-04-03T05:33:45;6.00;64.10
18321;DHT22;54904;54.350;18.664;2023-04-03T05:36:16;6.00;64.10
18321;DHT22;54904;54.350;18.664;2023-04-03T05:38:47;6.00;64.30
18321;DHT22;54904;54.350;18.664;2023-04-03T05:41:15;6.00;64.20
18321;DHT22;54904;54.350;18.664;2023-04-03T05:43:45;6.00;63.70
18321;DHT22;54904;54.350;18.664;2023-04-03T05:46:14;6.00;63.40
18321;DHT22;54904;54.350;18.664;2023-04-03T05:48:45;6.00;63.20
18321;DHT22;54904;54.350;18.664;2023-04-03T05:51:18;6.00;63.40
18321;DHT22;54904;54.350;18.664;2023-04-03T05:53:48;6.00;63.30
18321;DHT22;54904;54.350;18.664;2023-04-03T05:56:16;6.00;63.50
18321;DHT22;54904;54.350;18.664;2023-04-03T05:58:43;6.10;63.90
18321;DHT22;54904;54.350;18.664;2023-04-03T06:01:11;6.10;64.00
18321;DHT22;54904;54.350;18.664;2023-04-03T06:03:38;6.10;64.40
18321;DHT22;54904;54.350;18.664;2023-04-03T06:06:12;6.20;64.90
18321;DHT22;54904;54.350;18.664;2023-04-03T06:08:40;6.30;64.80
18321;DHT22;54904;54.350;18.664;2023-04-03T06:11:07;6.30;64.50
18321;DHT22;54904;54.350;18.664;2023-04-03T06:13:34;6.20;63.20
18321;DHT22;54904;54.350;18.664;2023-04-03T06:16:01;6.20;62.60
18321;DHT22;54904;54.350;18.664;2023-04-03T06:18:30;6.10;62.60
18321;DHT22;54904;54.350;18.664;2023-04-03T06:20:57;6.20;62.70
18321;DHT22;54904;54.350;18.664;2023-04-03T06:23:28;6.30;63.40
18321;DHT22;54904;54.350;18.664;2023-04-03T06:25:55;6.30;64.10
18321;DHT22;54904;54.350;18.664;2023-04-03T06:28:22;6.40;64.80
18321;DHT22;54904;54.350;18.664;2023-04-03T06:30:49;6.50;64.60
18321;DHT22;54904;54.350;18.664;2023-04-03T06:33:16;6.60;63.70
18321;DHT22;54904;54.350;18.664;2023-04-03T06:35:43;6.60;63.00
18321;DHT22;54904;54.350;18.664;2023-04-03T06:38:10;6.60;62.40
18321;DHT22;54904;54.350;18.664;2023-04-03T06:40:39;6.60;62.50
18321;DHT22;54904;54.350;18.664;2023-04-03T06:43:06;6.60;61.90
18321;DHT22;54904;54.350;18.664;2023-04-03T06:45:34;6.60;61.60
18321;DHT22;54904;54.350;18.664;2023-04-03T06:48:02;6.70;61.00
18321;DHT22;54904;54.350;18.664;2023-04-03T06:50:29;6.70;60.00
18321;DHT22;54904;54.350;18.664;2023-04-03T06:52:56;6.70;59.80
18321;DHT22;54904;54.350;18.664;2023-04-03T06:55:23;6.70;59.50
18321;DHT22;54904;54.350;18.664;2023-04-03T06:57:51;6.70;59.70
18321;DHT22;54904;54.350;18.664;2023-04-03T07:00:19;6.70;59.50
18321;DHT22;54904;54.350;18.664;2023-04-03T07:02:46;6.70;59.60
18321;DHT22;54904;54.350;18.664;2023-04-03T07:05:14;6.80;59.70
18321;DHT22;54904;54.350;18.664;2023-04-03T07:07:41;6.80;60.00
18321;DHT22;54904;54.350;18.664;2023-04-03T07:10:08;6.70;59.90
18321;DHT22;54904;54.350;18.664;2023-04-03T07:12:37;6.70;60.30
18321;DHT22;54904;54.350;18.664;2023-04-03T07:15:07;6.80;60.70
18321;DHT22;54904;54.350;18.664;2023-04-03T07:17:34;6.80;60.70
18321;DHT22;54904;54.350;18.664;2023-04-03T07:20:01;6.80;60.60
18321;DHT22;54904;54.350;18.664;2023-04-03T07:22:31;6.80;60.70
18321;DHT22;54904;54.350;18.664;2023-04-03T07:24:58;6.80;61.00
18321;DHT22;54904;54.350;18.664;2023-04-03T07:27:25;6.90;59.90
18321;DHT22;54904;54.350;18.664;2023-04-03T07:29:53;6.90;60.00
18321;DHT22;54904;54.350;18.664;2023-04-03T07:32:23;7.10;60.30
18321;DHT22;54904;54.350;18.664;2023-04-03T07:34:50;7.20;60.30
18321;DHT22;54904;54.350;18.664;2023-04-03T07:37:17;7.30;59.80
18321;DHT22;54904;54.350;18.664;2023-04-03T07:39:45;7.30;59.30
18321;DHT22;54904;54.350;18.664;2023-04-03T07:42:12;7.30;59.20
18321;DHT22;54904;54.350;18.664;2023-04-03T07:44:39;7.30;59.30
18321;DHT22;54904;54.350;18.664;2023-04-03T07:47:06;7.40;59.70
18321;DHT22;54904;54.350;18.664;2023-04-03T07:49:35;7.40;59.70
18321;DHT22;54904;54.350;18.664;2023-04-03T07:52:05;7.40;60.00
18321;DHT22;54904;54.350;18.664;2023-04-03T07:54:33;7.50;60.20
18321;DHT22;54904;54.350;18.664;2023-04-03T07:57:00;7.60;61.50
18321;DHT22;54904;54.350;18.664;2023-04-03T07:59:28;7.70;60.00
18321;DHT22;54904;54.350;18.664;2023-04-03T08:01:55;7.80;59.40
18321;DHT22;54904;54.350;18.664;2023-04-03T08:04:22;7.80;59.00
18321;DHT22;54904;54.350;18.664;2023-04-03T08:06:51;7.80;59.00
18321;DHT22;54904;54.350;18.664;2023-04-03T08:09:18;7.90;59.00
18321;DHT22;54904;54.350;18.664;2023-04-03T08:11:45;8.00;59.10
18321;DHT22;54904;54.350;18.664;2023-04-03T08:14:13;8.20;59.30
18321;DHT22;54904;54.350;18.664;2023-04-03T08:16:45;8.20;59.20
18321;DHT22;54904;54.350;18.664;2023-04-03T08:19:12;8.10;59.30
18321;DHT22;54904;54.350;18.664;2023-04-03T08:21:41;8.00;59.50
18321;DHT22;54904;54.350;18.664;2023-04-03T08:24:10;8.00;59.90
18321;DHT22;54904;54.350;18.664;2023-04-03T08:26:37;8.00;59.80
18321;DHT22;54904;54.350;18.664;2023-04-03T08:29:04;8.00;59.70
18321;DHT22;54904;54.350;18.664;2023-04-03T08:31:31;7.90;59.30
18321;DHT22;54904;54.350;18.664;2023-04-03T08:33:59;7.90;59.70
18321;DHT22;54904;54.350;18.664;2023-04-03T08:36:27;7.90;59.70
18321;DHT22;54904;54.350;18.664;2023-04-03T08:38:56;7.90;59.20
18321;DHT22;54904;54.350;18.664;2023-04-03T08:41:31;8.00;59.30
18321;DHT22;54904;54.350;18.664;2023-04-03T08:44:12;8.10;59.70
18321;DHT22;54904;54.350;18.664;2023-04-03T08:46:52;8.20;59.30
18321;DHT22;54904;54.350;18.664;2023-04-03T08:49:26;8.40;59.50
18321;DHT22;54904;54.350;18.664;2023-04-03T08:51:54;8.60;59.30
18321;DHT22;54904;54.350;18.664;2023-04-03T08:54:28;8.70;58.90
18321;DHT22;54904;54.350;18.664;2023-04-03T08:57:00;8.90;59.00
18321;DHT22;54904;54.350;18.664;2023-04-03T08:59:32;9.00;59.10
18321;DHT22;54904;54.350;18.664;2023-04-03T09:02:03;9.20;59.30
18321;DHT22;54904;54.350;18.664;2023-04-03T09:04:32;9.30;59.30
18321;DHT22;54904;54.350;18.664;2023-04-03T09:07:04;9.30;59.20
18321;DHT22;54904;54.350;18.664;2023-04-03T09:09:36;9.30;59.00
18321;DHT22;54904;54.350;18.664;2023-04-03T09:12:15;9.30;58.90
18321;DHT22;54904;54.350;18.664;2023-04-03T09:14:52;9.30;58.90
18321;DHT22;54904;54.350;18.664;2023-04-03T09:17:33;9.40;59.70
18321;DHT22;54904;54.350;18.664;2023-04-03T09:20:10;9.50;59.30
18321;DHT22;54904;54.350;18.664;2023-04-03T09:22:43;9.50;59.50
18321;DHT22;54904;54.350;18.664;2023-04-03T09:25:14;9.60;59.80
18321;DHT22;54904;54.350;18.664;2023-04-03T09:27:44;9.60;59.80
18321;DHT22;54904;54.350;18.664;2023-04-03T09:30:14;9.60;59.60
18321;DHT22;54904;54.350;18.664;2023-04-03T09:32:43;9.70;59.80
18321;DHT22;54904;54.350;18.664;2023-04-03T09:35:18;9.60;59.90
18321;DHT22;54904;54.350;18.664;2023-04-03T09:37:48;9.60;60.40
18321;DHT22;54904;54.350;18.664;2023-04-03T09:40:32;9.70;60.70
18321;DHT22;54904;54.350;18.664;2023-04-03T09:43:20;9.70;60.50
18321;DHT22;54904;54.350;18.664;2023-04-03T09:45:49;9.90;61.20
18321;DHT22;54904;54.350;18.664;2023-04-03T09:48:18;10.00;60.80
18321;DHT22;54904;54.350;18.664;2023-04-03T09:50:55;9.90;61.90
18321;DHT22;54904;54.350;18.664;2023-04-03T09:53:30;9.80;62.10
18321;DHT22;54904;54.350;18.664;2023-04-03T09:55:58;9.80;62.50
18321;DHT22;54904;54.350;18.664;2023-04-03T09:58:29;9.90;62.70
18321;DHT22;54904;54.350;18.664;2023-04-03T10:00:59;10.00;61.70
18321;DHT22;54904;54.350;18.664;2023-04-03T10:03:31;10.10;62.10
18321;DHT22;54904;54.350;18.664;2023-04-03T10:06:00;10.10;62.10
18321;DHT22;54904;54.350;18.664;2023-04-03T10:08:30;10.10;61.80
18321;DHT22;54904;54.350;18.664;2023-04-03T10:11:12;10.10;62.30
18321;DHT22;54904;54.350;18.664;2023-04-03T10:13:55;10.10;62.60
18321;DHT22;54904;54.350;18.664;2023-04-03T10:16:29;10.10;62.60
18321;DHT22;54904;54.350;18.664;2023-04-03T10:19:24;10.00;62.60
18321;DHT22;54904;54.350;18.664;2023-04-03T10:21:59;9.80;63.90
18321;DHT22;54904;54.350;18.664;2023-04-03T10:24:33;9.60;64.40
18321;DHT22;54904;54.350;18.664;2023-04-03T10:27:05;9.40;65.00
18321;DHT22;54904;54.350;18.664;2023-04-03T10:29:43;9.30;65.70
18321;DHT22;54904;54.350;18.664;2023-04-03T10:32:31;9.10;65.70
18321;DHT22;54904;54.350;18.664;2023-04-03T10:35:10;9.10;65.50
18321;DHT22;54904;54.350;18.664;2023-04-03T10:37:48;9.00;65.40
18321;DHT22;54904;54.350;18.664;2023-04-03T10:40:24;9.00;65.50
18321;DHT22;54904;54.350;18.664;2023-04-03T10:43:02;9.10;65.60
18321;DHT22;54904;54.350;18.664;2023-04-03T10:48:37;9.40;65.00
18321;DHT22;54904;54.350;18.664;2023-04-03T10:51:24;9.60;64.60
18321;DHT22;54904;54.350;18.664;2023-04-03T10:53:56;9.80;63.60
18321;DHT22;54904;54.350;18.664;2023-04-03T10:56:31;9.90;63.70
18321;DHT22;54904;54.350;18.664;2023-04-03T10:59:16;10.20;63.10
18321;DHT22;54904;54.350;18.664;2023-04-03T11:01:49;10.40;62.50
18321;DHT22;54904;54.350;18.664;2023-04-03T11:04:19;10.50;61.90
18321;DHT22;54904;54.350;18.664;2023-04-03T11:06:50;10.60;61.00
18321;DHT22;54904;54.350;18.664;2023-04-03T11:09:22;10.70;61.30
18321;DHT22;54904;54.350;18.664;2023-04-03T11:11:54;10.80;60.30
18321;DHT22;54904;54.350;18.664;2023-04-03T11:14:26;10.80;60.70
18321;DHT22;54904;54.350;18.664;2023-04-03T11:17:09;10.90;60.40
18321;DHT22;54904;54.350;18.664;2023-04-03T11:19:41;11.00;59.00
18321;DHT22;54904;54.350;18.664;2023-04-03T11:22:16;11.00;58.50
18321;DHT22;54904;54.350;18.664;2023-04-03T11:24:54;11.00;58.20
18321;DHT22;54904;54.350;18.664;2023-04-03T11:27:23;11.00;58.40
18321;DHT22;54904;54.350;18.664;2023-04-03T11:29:53;11.10;58.90
18321;DHT22;54904;54.350;18.664;2023-04-03T11:32:59;11.30;58.40
18321;DHT22;54904;54.350;18.664;2023-04-03T11:35:28;11.20;57.20
18321;DHT22;54904;54.350;18.664;2023-04-03T11:37:57;11.20;57.60
18321;DHT22;54904;54.350;18.664;2023-04-03T11:40:28;11.40;58.00
18321;DHT22;54904;54.350;18.664;2023-04-03T11:43:06;11.40;58.00
18321;DHT22;54904;54.350;18.664;2023-04-03T11:45:40;11.30;57.50
18321;DHT22;54904;54.350;18.664;2023-04-03T11:48:51;11.20;57.70
18321;DHT22;54904;54.350;18.664;2023-04-03T11:51:45;11.10;58.40
18321;DHT22;54904;54.350;18.664;2023-04-03T11:54:35;11.00;58.60
18321;DHT22;54904;54.350;18.664;2023-04-03T12:12:40;10.70;57.50
18321;DHT22;54904;54.350;18.664;2023-04-03T12:15:38;10.60;56.70
18321;DHT22;54904;54.350;18.664;2023-04-03T12:21:19;10.30;55.10
18321;DHT22;54904;54.350;18.664;2023-04-03T12:24:00;10.30;54.90
18321;DHT22;54904;54.350;18.664;2023-04-03T12:26:30;10.30;55.10
18321;DHT22;54904;54.350;18.664;2023-04-03T12:29:02;10.20;55.00
18321;DHT22;54904;54.350;18.664;2023-04-03T12:31:42;10.10;55.00
18321;DHT22;54904;54.350;18.664;2023-04-03T12:34:23;10.20;54.60
18321;DHT22;54904;54.350;18.664;2023-04-03T12:37:00;10.30;55.40
18321;DHT22;54904;54.350;18.664;2023-04-03T12:39:51;10.40;55.30
18321;DHT22;54904;54.350;18.664;2023-04-03T12:45:41;10.40;54.60
18321;DHT22;54904;54.350;18.664;2023-04-03T12:48:15;10.10;54.50
18321;DHT22;54904;54.350;18.664;2023-04-03T12:50:43;10.00;54.10
18321;DHT22;54904;54.350;18.664;2023-04-03T12:53:15;9.90;54.90
18321;DHT22;54904;54.350;18.664;2023-04-03T12:55:43;9.90;55.20
18321;DHT22;54904;54.350;18.664;2023-04-03T12:58:15;9.90;55.40
18321;DHT22;54904;54.350;18.664;2023-04-03T13:00:45;9.90;55.70
18321;DHT22;54904;54.350;18.664;2023-04-03T13:03:24;9.80;55.80
18321;DHT22;54904;54.350;18.664;2023-04-03T13:05:55;10.10;55.60
18321;DHT22;54904;54.350;18.664;2023-04-03T13:08:24;10.20;55.60
18321;DHT22;54904;54.350;18.664;2023-04-03T13:10:55;10.30;55.90
18321;DHT22;54904;54.350;18.664;2023-04-03T13:13:24;10.30;56.50
18321;DHT22;54904;54.350;18.664;2023-04-03T13:15:53;10.30;56.90
18321;DHT22;54904;54.350;18.664;2023-04-03T13:18:28;10.20;57.00
18321;DHT22;54904;54.350;18.664;2023-04-03T13:21:00;10.00;57.20
18321;DHT22;54904;54.350;18.664;2023-04-03T13:23:29;9.80;59.60
18321;DHT22;54904;54.350;18.664;2023-04-03T13:25:57;9.60;60.00
18321;DHT22;54904;54.350;18.664;2023-04-03T13:28:30;9.30;60.00
18321;DHT22;54904;54.350;18.664;2023-04-03T13:31:03;9.10;60.80
18321;DHT22;54904;54.350;18.664;2023-04-03T13:33:34;9.00;60.40
18321;DHT22;54904;54.350;18.664;2023-04-03T13:36:05;9.00;60.30
18321;DHT22;54904;54.350;18.664;2023-04-03T13:38:33;9.00;59.50
18321;DHT22;54904;54.350;18.664;2023-04-03T13:41:05;9.00;58.60
18321;DHT22;54904;54.350;18.664;2023-04-03T13:43:47;9.10;58.70
18321;DHT22;54904;54.350;18.664;2023-04-03T13:46:27;9.20;58.50
18321;DHT22;54904;54.350;18.664;2023-04-03T13:48:56;9.30;57.90
18321;DHT22;54904;54.350;18.664;2023-04-03T13:51:25;9.30;57.20
18321;DHT22;54904;54.350;18.664;2023-04-03T13:53:55;9.40;58.30
18321;DHT22;54904;54.350;18.664;2023-04-03T13:56:29;9.40;58.80
18321;DHT22;54904;54.350;18.664;2023-04-03T13:59:04;9.30;59.30
18321;DHT22;54904;54.350;18.664;2023-04-03T14:01:43;9.30;59.70
18321;DHT22;54904;54.350;18.664;2023-04-03T14:04:15;9.30;60.00
18321;DHT22;54904;54.350;18.664;2023-04-03T14:06:43;9.30;59.40
18321;DHT22;54904;54.350;18.664;2023-04-03T14:09:12;9.30;59.20
18321;DHT22;54904;54.350;18.664;2023-04-03T14:11:40;9.30;59.70
18321;DHT22;54904;54.350;18.664;2023-04-03T14:14:12;9.40;59.80
18321;DHT22;54904;54.350;18.664;2023-04-03T14:16:45;9.30;59.80
18321;DHT22;54904;54.350;18.664;2023-04-03T14:19:19;9.30;61.40
18321;DHT22;54904;54.350;18.664;2023-04-03T14:21:47;9.30;62.20
18321;DHT22;54904;54.350;18.664;2023-04-03T14:24:14;9.30;61.70
18321;DHT22;54904;54.350;18.664;2023-04-03T14:26:42;9.20;59.60
18321;DHT22;54904;54.350;18.664;2023-04-03T14:29:11;9.20;58.80
18321;DHT22;54904;54.350;18.664;2023-04-03T14:31:38;9.20;58.70
18321;DHT22;54904;54.350;18.664;2023-04-03T14:34:07;9.30;58.90
18321;DHT22;54904;54.350;18.664;2023-04-03T14:36:34;9.30;59.10
18321;DHT22;54904;54.350;18.664;2023-04-03T14:39:02;9.20;58.40
18321;DHT22;54904;54.350;18.664;2023-04-03T14:41:30;9.20;58.70
18321;DHT22;54904;54.350;18.664;2023-04-03T14:43:57;9.20;58.70
18321;DHT22;54904;54.350;18.664;2023-04-03T14:46:28;9.20;58.00
18321;DHT22;54904;54.350;18.664;2023-04-03T14:48:56;9.20;57.80
18321;DHT22;54904;54.350;18.664;2023-04-03T14:51:25;9.10;57.80
18321;DHT22;54904;54.350;18.664;2023-04-03T14:53:52;9.00;58.20
18321;DHT22;54904;54.350;18.664;2023-04-03T14:56:23;8.90;58.90
18321;DHT22;54904;54.350;18.664;2023-04-03T14:58:55;8.80;58.90
18321;DHT22;54904;54.350;18.664;2023-04-03T15:01:22;8.80;58.30
18321;DHT22;54904;54.350;18.664;2023-04-03T15:03:50;8.80;57.10
18321;DHT22;54904;54.350;18.664;2023-04-03T15:06:17;8.70;56.60
18321;DHT22;54904;54.350;18.664;2023-04-03T15:08:46;8.60;56.40
18321;DHT22;54904;54.350;18.664;2023-04-03T15:11:14;8.50;56.70
18321;DHT22;54904;54.350;18.664;2023-04-03T15:13:42;8.50;57.30
18321;DHT22;54904;54.350;18.664;2023-04-03T15:16:14;8.50;57.50
18321;DHT22;54904;54.350;18.664;2023-04-03T15:18:43;8.50;56.40
18321;DHT22;54904;54.350;18.664;2023-04-03T15:21:10;8.50;56.00
18321;DHT22;54904;54.350;18.664;2023-04-03T15:23:37;8.40;56.70
18321;DHT22;54904;54.350;18.664;2023-04-03T15:26:06;8.40;57.30
18321;DHT22;54904;54.350;18.664;2023-04-03T15:28:35;8.40;57.50
18321;DHT22;54904;54.350;18.664;2023-04-03T15:31:03;8.40;57.70
18321;DHT22;54904;54.350;18.664;2023-04-03T15:33:31;8.40;57.20
18321;DHT22;54904;54.350;18.664;2023-04-03T15:35:59;8.50;57.20
18321;DHT22;54904;54.350;18.664;2023-04-03T15:38:26;8.50;57.60
18321;DHT22;54904;54.350;18.664;2023-04-03T15:40:54;8.40;58.20
18321;DHT22;54904;54.350;18.664;2023-04-03T15:43:23;8.40;59.00
18321;DHT22;54904;54.350;18.664;2023-04-03T15:45:50;8.30;60.00
18321;DHT22;54904;54.350;18.664;2023-04-03T15:48:18;8.30;61.00
18321;DHT22;54904;54.350;18.664;2023-04-03T15:50:45;8.20;62.00
18321;DHT22;54904;54.350;18.664;2023-04-03T15:53:12;8.20;62.90
18321;DHT22;54904;54.350;18.664;2023-04-03T15:55:39;8.10;63.90
18321;DHT22;54904;54.350;18.664;2023-04-03T15:58:07;8.10;64.40
18321;DHT22;54904;54.350;18.664;2023-04-03T16:00:36;8.00;64.60
18321;DHT22;54904;54.350;18.664;2023-04-03T16:03:06;8.00;65.00
18321;DHT22;54904;54.350;18.664;2023-04-03T16:05:36;8.00;65.30
18321;DHT22;54904;54.350;18.664;2023-04-03T16:08:05;7.90;64.90
18321;DHT22;54904;54.350;18.664;2023-04-03T16:10:33;7.90;63.70
18321;DHT22;54904;54.350;18.664;2023-04-03T16:13:01;7.80;63.00
18321;DHT22;54904;54.350;18.664;2023-04-03T16:15:29;7.70;62.40
18321;DHT22;54904;54.350;18.664;2023-04-03T16:17:58;7.70;62.20